sensor_id;sensor_type;location;lat;lon;timestamp;pressure;altitude;pressure_sealevel;temperature;humidity
56912;BME280;42800;53.928;27.662;2023-05-12T00:00:55;99210.06;;;7.46;100.00
56912;BME280;42800;53.928;27.662;2023-05-12T00:03:21;99205.63;;;7.42;100.00
56912;BME280;42800;53.928;27.662;2023-05-12T00:05:48;99201.91;;;7.34;100.00
56912;BME280;42800;53.928;27.662;2023-05-12T00:08:14;99192.47;;;7.31;100.00
56912;BME280;42800;53.928;27.662;2023-05-12T00:10:40;99191.56;;;7.27;100.00
56912;BME280;42800;53.928;27.662;2023-05-12T00:13:06;99198.38;;;7.34;100.00
56912;BME280;42800;53.928;27.662;2023-05-12T00:15:32;99197.44;;;7.29;100.00
56912;BME280;42800;53.928;27.662;2023-05-12T00:17:59;99194.97;;;7.24;100.00
56912;BME280;42800;53.928;27.662;2023-05-12T00:20:25;99186.78;;;7.24;100.00
56912;BME280;42800;53.928;27.662;2023-05-12T00:22:51;99185.44;;;7.30;100.00
56912;BME280;42800;53.928;27.662;2023-05-12T00:25:17;99183.94;;;7.21;100.00
56912;BME280;42800;53.928;27.662;2023-05-12T00:27:43;99186.00;;;7.24;100.00
56912;BME280;42800;53.928;27.662;2023-05-12T00:30:09;99177.47;;;7.25;100.00
56912;BME280;42800;53.928;27.662;2023-05-12T00:32:35;99191.00;;;7.22;100.00
56912;BME280;42800;53.928;27.662;2023-05-12T00:35:02;99193.38;;;7.23;100.00
56912;BME280;42800;53.928;27.662;2023-05-12T00:37:29;99191.22;;;7.17;100.00
56912;BME280;42800;53.928;27.662;2023-05-12T00:39:55;99196.00;;;7.20;100.00
56912;BME280;42800;53.928;27.662;2023-05-12T00:42:20;99192.94;;;7.21;100.00
56912;BME280;42800;53.928;27.662;2023-05-12T00:44:46;99197.81;;;7.16;100.00
56912;BME280;42800;53.928;27.662;2023-05-12T00:47:12;99204.75;;;7.13;100.00
56912;BME280;42800;53.928;27.662;2023-05-12T00:49:38;99192.69;;;7.14;100.00
56912;BME280;42800;53.928;27.662;2023-05-12T00:52:07;99210.78;;;7.06;100.00
56912;BME280;42800;53.928;27.662;2023-05-12T00:54:34;99199.97;;;6.98;100.00
56912;BME280;42800;53.928;27.662;2023-05-12T00:57:00;99202.72;;;7.10;100.00
56912;BME280;42800;53.928;27.662;2023-05-12T00:59:26;99201.09;;;7.09;100.00
56912;BME280;42800;53.928;27.662;2023-05-12T01:01:54;99198.38;;;7.09;100.00
56912;BME280;42800;53.928;27.662;2023-05-12T01:04:20;99197.56;;;7.08;100.00
56912;BME280;42800;53.928;27.662;2023-05-12T01:06:48;99198.38;;;7.09;100.00
56912;BME280;42800;53.928;27.662;2023-05-12T01:09:19;99188.72;;;6.99;100.00
56912;BME280;42800;53.928;27.662;2023-05-12T01:11:45;99178.75;;;7.03;100.00
56912;BME280;42800;53.928;27.662;2023-05-12T01:14:11;99173.94;;;6.88;100.00
56912;BME280;42800;53.928;27.662;2023-05-12T01:16:41;99167.34;;;6.89;100.00
56912;BME280;42800;53.928;27.662;2023-05-12T01:19:13;99155.34;;;6.90;100.00
56912;BME280;42800;53.928;27.662;2023-05-12T01:21:39;99158.50;;;6.92;100.00
56912;BME280;42800;53.928;27.662;2023-05-12T01:24:07;99172.47;;;6.91;100.00
56912;BME280;42800;53.928;27.662;2023-05-12T01:26:34;99165.22;;;6.95;100.00
56912;BME280;42800;53.928;27.662;2023-05-12T01:29:01;99169.41;;;6.92;100.00
56912;BME280;42800;53.928;27.662;2023-05-12T01:31:29;99161.47;;;6.87;100.00
56912;BME280;42800;53.928;27.662;2023-05-12T01:33:55;99163.41;;;6.87;100.00
56912;BME280;42800;53.928;27.662;2023-05-12T01:36:21;99165.78;;;6.88;100.00
56912;BME280;42800;53.928;27.662;2023-05-12T01:38:47;99153.28;;;6.87;100.00
56912;BME280;42800;53.928;27.662;2023-05-12T01:41:13;99162.34;;;6.79;100.00
56912;BME280;42800;53.928;27.662;2023-05-12T01:43:39;99163.97;;;6.80;100.00
56912;BME280;42800;53.928;27.662;2023-05-12T01:46:05;99166.78;;;6.71;100.00
56912;BME280;42800;53.928;27.662;2023-05-12T01:48:31;99164.19;;;6.75;100.00
56912;BME280;42800;53.928;27.662;2023-05-12T01:50:58;99162.47;;;6.70;100.00
56912;BME280;42800;53.928;27.662;2023-05-12T01:53:24;99167.81;;;6.67;100.00
56912;BME280;42800;53.928;27.662;2023-05-12T01:55:50;99162.38;;;6.67;100.00
56912;BME280;42800;53.928;27.662;2023-05-12T01:58:16;99161.22;;;6.68;100.00
56912;BME280;42800;53.928;27.662;2023-05-12T02:00:44;99165.41;;;6.65;100.00
56912;BME280;42800;53.928;27.662;2023-05-12T02:03:10;99159.16;;;6.65;100.00
56912;BME280;42800;53.928;27.662;2023-05-12T02:05:36;99160.75;;;6.66;100.00
56912;BME280;42800;53.928;27.662;2023-05-12T02:08:02;99164.63;;;6.65;100.00
56912;BME280;42800;53.928;27.662;2023-05-12T02:10:28;99162.91;;;6.60;100.00
56912;BME280;42800;53.928;27.662;2023-05-12T02:12:54;99168.50;;;6.64;100.00
56912;BME280;42800;53.928;27.662;2023-05-12T02:15:20;99167.69;;;6.63;100.00
56912;BME280;42800;53.928;27.662;2023-05-12T02:17:47;99167.22;;;6.61;100.00
56912;BME280;42800;53.928;27.662;2023-05-12T02:20:14;99160.63;;;6.62;100.00
56912;BME280;42800;53.928;27.662;2023-05-12T02:22:40;99177.34;;;6.60;100.00
56912;BME280;42800;53.928;27.662;2023-05-12T02:25:07;99168.00;;;6.62;100.00
56912;BME280;42800;53.928;27.662;2023-05-12T02:27:33;99165.28;;;6.62;100.00
56912;BME280;42800;53.928;27.662;2023-05-12T02:29:58;99161.78;;;6.61;100.00
56912;BME280;42800;53.928;27.662;2023-05-12T02:32:24;99175.50;;;6.65;100.00
56912;BME280;42800;53.928;27.662;2023-05-12T02:34:53;99170.63;;;6.58;100.00
56912;BME280;42800;53.928;27.662;2023-05-12T02:37:19;99173.16;;;6.63;100.00
56912;BME280;42800;53.928;27.662;2023-05-12T02:39:45;99171.31;;;6.67;100.00
56912;BME280;42800;53.928;27.662;2023-05-12T02:42:11;99168.47;;;6.76;100.00
56912;BME280;42800;53.928;27.662;2023-05-12T02:44:37;99165.97;;;6.83;100.00
56912;BME280;42800;53.928;27.662;2023-05-12T02:47:03;99170.06;;;7.38;100.00
56912;BME280;42800;53.928;27.662;2023-05-12T02:49:29;99180.81;;;7.71;100.00
56912;BME280;42800;53.928;27.662;2023-05-12T02:51:55;99207.38;;;8.15;100.00
56912;BME280;42800;53.928;27.662;2023-05-12T02:54:21;99251.56;;;8.45;100.00
56912;BME280;42800;53.928;27.662;2023-05-12T02:56:47;99311.88;;;8.80;100.00
56912;BME280;42800;53.928;27.662;2023-05-12T02:59:13;99349.50;;;9.15;100.00
56912;BME280;42800;53.928;27.662;2023-05-12T03:01:39;99405.50;;;9.49;100.00
56912;BME280;42800;53.928;27.662;2023-05-12T03:04:05;99464.53;;;9.78;100.00
56912;BME280;42800;53.928;27.662;2023-05-12T03:06:31;99542.66;;;10.04;100.00
56912;BME280;42800;53.928;27.662;2023-05-12T03:08:58;99563.13;;;10.38;100.00
56912;BME280;42800;53.928;27.662;2023-05-12T03:11:24;99590.44;;;10.50;100.00
56912;BME280;42800;53.928;27.662;2023-05-12T03:13:50;99634.53;;;10.93;100.00
56912;BME280;42800;53.928;27.662;2023-05-12T03:16:16;99661.50;;;11.22;100.00
56912;BME280;42800;53.928;27.662;2023-05-12T03:18:42;99679.53;;;11.39;100.00
56912;BME280;42800;53.928;27.662;2023-05-12T03:21:08;99704.53;;;11.69;100.00
56912;BME280;42800;53.928;27.662;2023-05-12T03:23:34;99712.25;;;11.99;100.00
56912;BME280;42800;53.928;27.662;2023-05-12T03:26:02;99739.09;;;12.25;100.00
56912;BME280;42800;53.928;27.662;2023-05-12T03:28:28;99743.88;;;12.47;100.00
56912;BME280;42800;53.928;27.662;2023-05-12T03:30:54;99768.06;;;12.81;100.00
56912;BME280;42800;53.928;27.662;2023-05-12T03:33:20;99772.59;;;13.15;100.00
56912;BME280;42800;53.928;27.662;2023-05-12T03:35:45;99791.84;;;13.35;100.00
56912;BME280;42800;53.928;27.662;2023-05-12T03:38:11;99806.09;;;13.63;100.00
56912;BME280;42800;53.928;27.662;2023-05-12T03:40:37;99810.22;;;13.77;100.00
56912;BME280;42800;53.928;27.662;2023-05-12T03:43:04;99818.75;;;13.95;100.00
56912;BME280;42800;53.928;27.662;2023-05-12T03:45:30;99817.91;;;14.17;100.00
56912;BME280;42800;53.928;27.662;2023-05-12T03:47:56;99834.38;;;14.40;100.00
56912;BME280;42800;53.928;27.662;2023-05-12T03:50:21;99832.06;;;14.76;100.00
56912;BME280;42800;53.928;27.662;2023-05-12T03:52:48;99839.38;;;14.95;100.00
56912;BME280;42800;53.928;27.662;2023-05-12T03:55:14;99850.38;;;15.28;97.17
56912;BME280;42800;53.928;27.662;2023-05-12T03:57:40;99858.84;;;15.46;93.76
56912;BME280;42800;53.928;27.662;2023-05-12T04:00:07;99862.84;;;16.00;86.13
56912;BME280;42800;53.928;27.662;2023-05-12T04:02:34;99870.94;;;16.27;79.46
56912;BME280;42800;53.928;27.662;2023-05-12T04:05:00;99869.38;;;16.33;78.80
56912;BME280;42800;53.928;27.662;2023-05-12T04:07:26;99873.03;;;16.52;80.31
56912;BME280;42800;53.928;27.662;2023-05-12T04:09:52;99875.91;;;16.73;77.16
56912;BME280;42800;53.928;27.662;2023-05-12T04:12:17;99883.25;;;17.35;72.83
56912;BME280;42800;53.928;27.662;2023-05-12T04:14:43;99891.97;;;17.48;69.38
56912;BME280;42800;53.928;27.662;2023-05-12T04:17:10;99892.81;;;17.73;70.34
56912;BME280;42800;53.928;27.662;2023-05-12T04:19:36;99889.66;;;17.82;66.46
56912;BME280;42800;53.928;27.662;2023-05-12T04:22:02;99896.38;;;18.20;66.02
56912;BME280;42800;53.928;27.662;2023-05-12T04:24:28;99894.41;;;18.17;66.29
56912;BME280;42800;53.928;27.662;2023-05-12T04:26:54;99903.03;;;18.73;63.77
56912;BME280;42800;53.928;27.662;2023-05-12T04:29:21;99903.00;;;18.66;63.75
56912;BME280;42800;53.928;27.662;2023-05-12T04:31:47;99914.31;;;19.18;61.21
56912;BME280;42800;53.928;27.662;2023-05-12T04:34:14;99910.75;;;19.17;60.76
56912;BME280;42800;53.928;27.662;2023-05-12T04:36:40;99906.81;;;19.78;59.88
56912;BME280;42800;53.928;27.662;2023-05-12T04:39:06;99912.06;;;19.68;59.03
56912;BME280;42800;53.928;27.662;2023-05-12T04:41:31;99917.69;;;20.10;58.73
56912;BME280;42800;53.928;27.662;2023-05-12T04:43:57;99911.75;;;20.08;57.15
56912;BME280;42800;53.928;27.662;2023-05-12T04:46:23;99915.41;;;20.80;56.92
56912;BME280;42800;53.928;27.662;2023-05-12T04:48:49;99912.47;;;20.91;56.05
56912;BME280;42800;53.928;27.662;2023-05-12T04:51:16;99912.00;;;21.00;56.28
56912;BME280;42800;53.928;27.662;2023-05-12T04:53:42;99912.06;;;20.58;55.48
56912;BME280;42800;53.928;27.662;2023-05-12T04:56:08;99921.22;;;20.93;56.14
56912;BME280;42800;53.928;27.662;2023-05-12T04:58:34;99913.78;;;21.44;54.92
56912;BME280;42800;53.928;27.662;2023-05-12T05:01:00;99918.47;;;21.78;55.00
56912;BME280;42800;53.928;27.662;2023-05-12T05:03:26;99911.50;;;21.90;54.57
56912;BME280;42800;53.928;27.662;2023-05-12T05:05:51;99918.72;;;21.87;53.70
56912;BME280;42800;53.928;27.662;2023-05-12T05:08:18;99915.84;;;21.67;55.36
56912;BME280;42800;53.928;27.662;2023-05-12T05:10:44;99912.22;;;21.70;54.43
56912;BME280;42800;53.928;27.662;2023-05-12T05:13:10;99922.53;;;22.24;53.31
56912;BME280;42800;53.928;27.662;2023-05-12T05:15:36;99928.75;;;22.75;52.68
56912;BME280;42800;53.928;27.662;2023-05-12T05:18:02;99925.91;;;22.98;52.89
56912;BME280;42800;53.928;27.662;2023-05-12T05:20:29;99931.75;;;22.84;51.53
56912;BME280;42800;53.928;27.662;2023-05-12T05:22:56;99926.66;;;22.79;50.01
56912;BME280;42800;53.928;27.662;2023-05-12T05:25:23;99928.28;;;23.00;50.02
56912;BME280;42800;53.928;27.662;2023-05-12T05:27:50;99923.38;;;22.64;50.30
56912;BME280;42800;53.928;27.662;2023-05-12T05:30:17;99932.13;;;22.86;50.00
56912;BME280;42800;53.928;27.662;2023-05-12T05:32:44;99932.06;;;22.70;49.75
56912;BME280;42800;53.928;27.662;2023-05-12T05:35:10;99924.19;;;23.05;49.75
56912;BME280;42800;53.928;27.662;2023-05-12T05:37:36;99923.53;;;23.17;50.47
56912;BME280;42800;53.928;27.662;2023-05-12T05:40:02;99917.78;;;23.24;49.22
56912;BME280;42800;53.928;27.662;2023-05-12T05:42:29;99926.13;;;23.97;49.49
56912;BME280;42800;53.928;27.662;2023-05-12T05:44:55;99922.84;;;24.31;48.06
56912;BME280;42800;53.928;27.662;2023-05-12T05:47:21;99926.63;;;24.40;48.14
56912;BME280;42800;53.928;27.662;2023-05-12T05:49:47;99920.84;;;24.77;48.04
56912;BME280;42800;53.928;27.662;2023-05-12T05:52:13;99926.59;;;24.99;46.66
56912;BME280;42800;53.928;27.662;2023-05-12T05:54:39;99915.91;;;25.23;46.92
56912;BME280;42800;53.928;27.662;2023-05-12T05:57:05;99915.69;;;24.59;47.01
56912;BME280;42800;53.928;27.662;2023-05-12T05:59:31;99924.09;;;23.97;47.35
56912;BME280;42800;53.928;27.662;2023-05-12T06:01:57;99921.75;;;23.07;48.20
56912;BME280;42800;53.928;27.662;2023-05-12T06:04:23;99914.72;;;23.71;47.88
56912;BME280;42800;53.928;27.662;2023-05-12T06:06:49;99914.75;;;24.78;46.95
56912;BME280;42800;53.928;27.662;2023-05-12T06:09:15;99913.56;;;24.34;47.17
56912;BME280;42800;53.928;27.662;2023-05-12T06:11:41;99912.09;;;25.17;46.74
56912;BME280;42800;53.928;27.662;2023-05-12T06:14:07;99913.56;;;25.85;45.80
56912;BME280;42800;53.928;27.662;2023-05-12T06:16:34;99917.72;;;25.68;46.67
56912;BME280;42800;53.928;27.662;2023-05-12T06:19:00;99923.09;;;25.24;45.49
56912;BME280;42800;53.928;27.662;2023-05-12T06:21:26;99916.78;;;24.49;46.43
56912;BME280;42800;53.928;27.662;2023-05-12T06:23:52;99921.66;;;25.45;46.48
56912;BME280;42800;53.928;27.662;2023-05-12T06:26:19;99917.97;;;25.86;46.23
56912;BME280;42800;53.928;27.662;2023-05-12T06:28:45;99918.47;;;26.19;45.32
56912;BME280;42800;53.928;27.662;2023-05-12T06:31:11;99920.72;;;26.59;43.98
56912;BME280;42800;53.928;27.662;2023-05-12T06:33:37;99917.19;;;26.33;44.43
56912;BME280;42800;53.928;27.662;2023-05-12T06:36:04;99915.03;;;25.90;44.24
56912;BME280;42800;53.928;27.662;2023-05-12T06:38:30;99919.59;;;26.57;44.46
56912;BME280;42800;53.928;27.662;2023-05-12T06:40:56;99913.44;;;26.71;43.83
56912;BME280;42800;53.928;27.662;2023-05-12T06:43:22;99917.34;;;27.49;42.65
56912;BME280;42800;53.928;27.662;2023-05-12T06:45:48;99918.88;;;26.65;44.87
56912;BME280;42800;53.928;27.662;2023-05-12T06:48:13;99918.75;;;26.91;43.87
56912;BME280;42800;53.928;27.662;2023-05-12T06:50:40;99910.75;;;25.98;44.02
56912;BME280;42800;53.928;27.662;2023-05-12T06:53:07;99913.59;;;26.33;44.15
56912;BME280;42800;53.928;27.662;2023-05-12T06:55:33;99908.72;;;26.46;43.16
56912;BME280;42800;53.928;27.662;2023-05-12T06:57:59;99913.25;;;26.65;43.39
56912;BME280;42800;53.928;27.662;2023-05-12T07:00:25;99906.81;;;27.09;43.41
56912;BME280;42800;53.928;27.662;2023-05-12T07:02:51;99911.72;;;26.95;43.21
56912;BME280;42800;53.928;27.662;2023-05-12T07:05:17;99916.31;;;26.23;44.34
56912;BME280;42800;53.928;27.662;2023-05-12T07:07:44;99912.66;;;26.92;42.74
56912;BME280;42800;53.928;27.662;2023-05-12T07:10:10;99904.72;;;27.22;42.16
56912;BME280;42800;53.928;27.662;2023-05-12T07:12:36;99908.19;;;26.82;42.71
56912;BME280;42800;53.928;27.662;2023-05-12T07:15:03;99914.06;;;26.66;41.67
56912;BME280;42800;53.928;27.662;2023-05-12T07:17:29;99912.03;;;26.66;42.18
56912;BME280;42800;53.928;27.662;2023-05-12T07:19:55;99909.25;;;27.19;41.73
56912;BME280;42800;53.928;27.662;2023-05-12T07:22:21;99901.66;;;27.69;41.92
56912;BME280;42800;53.928;27.662;2023-05-12T07:24:48;99913.69;;;27.30;41.77
56912;BME280;42800;53.928;27.662;2023-05-12T07:27:14;99908.97;;;28.35;41.47
56912;BME280;42800;53.928;27.662;2023-05-12T07:29:40;99906.78;;;28.21;41.44
56912;BME280;42800;53.928;27.662;2023-05-12T07:32:07;99904.09;;;27.89;41.95
56912;BME280;42800;53.928;27.662;2023-05-12T07:34:33;99910.50;;;27.90;41.97
56912;BME280;42800;53.928;27.662;2023-05-12T07:36:58;99909.91;;;27.64;41.42
56912;BME280;42800;53.928;27.662;2023-05-12T07:39:26;99900.63;;;26.92;42.11
56912;BME280;42800;53.928;27.662;2023-05-12T07:41:53;99909.28;;;28.09;42.38
56912;BME280;42800;53.928;27.662;2023-05-12T07:44:19;99907.16;;;27.82;41.19
56912;BME280;42800;53.928;27.662;2023-05-12T07:46:46;99907.59;;;27.62;41.12
56912;BME280;42800;53.928;27.662;2023-05-12T07:49:11;99905.72;;;28.36;40.40
56912;BME280;42800;53.928;27.662;2023-05-12T07:51:37;99903.19;;;28.38;41.54
56912;BME280;42800;53.928;27.662;2023-05-12T07:54:03;99907.94;;;28.60;41.03
56912;BME280;42800;53.928;27.662;2023-05-12T07:56:30;99899.88;;;28.03;40.15
56912;BME280;42800;53.928;27.662;2023-05-12T07:58:57;99896.00;;;28.37;40.54
56912;BME280;42800;53.928;27.662;2023-05-12T08:01:23;99896.59;;;28.05;40.14
56912;BME280;42800;53.928;27.662;2023-05-12T08:03:49;99901.25;;;27.18;41.17
56912;BME280;42800;53.928;27.662;2023-05-12T08:06:15;99894.38;;;26.66;41.62
56912;BME280;42800;53.928;27.662;2023-05-12T08:08:41;99895.06;;;26.22;41.71
56912;BME280;42800;53.928;27.662;2023-05-12T08:11:08;99892.78;;;27.40;41.81
56912;BME280;42800;53.928;27.662;2023-05-12T08:13:35;99897.19;;;27.90;41.05
56912;BME280;42800;53.928;27.662;2023-05-12T08:16:01;99895.03;;;28.22;41.28
56912;BME280;42800;53.928;27.662;2023-05-12T08:18:27;99899.38;;;27.96;41.08
56912;BME280;42800;53.928;27.662;2023-05-12T08:20:53;99894.84;;;27.49;41.36
56912;BME280;42800;53.928;27.662;2023-05-12T08:23:19;99877.44;;;27.10;41.58
56912;BME280;42800;53.928;27.662;2023-05-12T08:25:45;99879.91;;;26.20;41.92
56912;BME280;42800;53.928;27.662;2023-05-12T08:28:13;99888.78;;;26.97;40.81
56912;BME280;42800;53.928;27.662;2023-05-12T08:30:39;99883.84;;;27.82;41.82
56912;BME280;42800;53.928;27.662;2023-05-12T08:33:06;99884.41;;;28.26;41.63
56912;BME280;42800;53.928;27.662;2023-05-12T08:35:32;99879.56;;;28.54;40.69
56912;BME280;42800;53.928;27.662;2023-05-12T08:37:58;99878.28;;;28.09;40.82
56912;BME280;42800;53.928;27.662;2023-05-12T08:40:24;99877.13;;;27.39;42.71
56912;BME280;42800;53.928;27.662;2023-05-12T08:43:00;99867.84;;;27.69;42.36
56912;BME280;42800;53.928;27.662;2023-05-12T08:45:30;99867.97;;;26.94;42.10
56912;BME280;42800;53.928;27.662;2023-05-12T08:47:57;99862.63;;;27.99;43.28
56912;BME280;42800;53.928;27.662;2023-05-12T08:50:26;99875.78;;;28.21;41.68
56912;BME280;42800;53.928;27.662;2023-05-12T08:52:55;99867.81;;;26.32;42.29
56912;BME280;42800;53.928;27.662;2023-05-12T08:55:22;99866.22;;;28.18;42.00
56912;BME280;42800;53.928;27.662;2023-05-12T08:57:48;99863.34;;;29.10;41.10
56912;BME280;42800;53.928;27.662;2023-05-12T09:00:15;99867.78;;;28.74;41.32
56912;BME280;42800;53.928;27.662;2023-05-12T09:02:42;99861.06;;;28.63;40.85
56912;BME280;42800;53.928;27.662;2023-05-12T09:05:09;99852.53;;;27.30;40.42
56912;BME280;42800;53.928;27.662;2023-05-12T09:07:35;99848.56;;;26.87;40.71
56912;BME280;42800;53.928;27.662;2023-05-12T09:10:06;99846.94;;;27.08;41.29
56912;BME280;42800;53.928;27.662;2023-05-12T09:12:36;99855.88;;;27.47;40.56
56912;BME280;42800;53.928;27.662;2023-05-12T09:15:04;99854.16;;;27.99;40.87
56912;BME280;42800;53.928;27.662;2023-05-12T09:17:32;99847.59;;;28.48;40.97
56912;BME280;42800;53.928;27.662;2023-05-12T09:19:58;99842.81;;;28.91;39.19
56912;BME280;42800;53.928;27.662;2023-05-12T09:22:27;99833.50;;;28.30;40.31
56912;BME280;42800;53.928;27.662;2023-05-12T09:24:54;99843.03;;;28.69;40.64
56912;BME280;42800;53.928;27.662;2023-05-12T09:27:23;99839.41;;;27.95;40.65
56912;BME280;42800;53.928;27.662;2023-05-12T09:29:50;99834.25;;;28.67;40.32
56912;BME280;42800;53.928;27.662;2023-05-12T09:32:16;99836.84;;;28.98;39.80
56912;BME280;42800;53.928;27.662;2023-05-12T09:34:42;99835.28;;;27.59;41.56
56912;BME280;42800;53.928;27.662;2023-05-12T09:37:08;99833.13;;;26.48;41.46
56912;BME280;42800;53.928;27.662;2023-05-12T09:39:35;99829.03;;;25.32;41.97
56912;BME280;42800;53.928;27.662;2023-05-12T09:42:01;99831.50;;;24.33;43.70
56912;BME280;42800;53.928;27.662;2023-05-12T09:44:27;99836.59;;;23.60;43.80
56912;BME280;42800;53.928;27.662;2023-05-12T09:46:54;99830.66;;;23.75;44.44
56912;BME280;42800;53.928;27.662;2023-05-12T09:49:22;99833.38;;;22.93;43.74
56912;BME280;42800;53.928;27.662;2023-05-12T09:51:50;99820.75;;;22.45;44.46
56912;BME280;42800;53.928;27.662;2023-05-12T09:54:23;99820.41;;;23.35;44.13
56912;BME280;42800;53.928;27.662;2023-05-12T09:56:50;99813.75;;;23.45;43.94
56912;BME280;42800;53.928;27.662;2023-05-12T09:59:18;99813.78;;;23.78;42.75
56912;BME280;42800;53.928;27.662;2023-05-12T10:01:45;99815.94;;;23.54;43.73
56912;BME280;42800;53.928;27.662;2023-05-12T10:04:12;99820.88;;;23.83;45.10
56912;BME280;42800;53.928;27.662;2023-05-12T10:06:40;99806.44;;;22.63;45.90
56912;BME280;42800;53.928;27.662;2023-05-12T10:09:11;99809.44;;;22.52;46.05
56912;BME280;42800;53.928;27.662;2023-05-12T10:11:39;99824.25;;;22.49;46.14
56912;BME280;42800;53.928;27.662;2023-05-12T10:14:06;99814.88;;;22.59;47.05
56912;BME280;42800;53.928;27.662;2023-05-12T10:16:35;99817.09;;;22.28;47.99
56912;BME280;42800;53.928;27.662;2023-05-12T10:19:01;99819.41;;;22.53;46.42
56912;BME280;42800;53.928;27.662;2023-05-12T10:21:28;99819.59;;;22.22;46.72
56912;BME280;42800;53.928;27.662;2023-05-12T10:23:55;99818.91;;;22.15;46.55
56912;BME280;42800;53.928;27.662;2023-05-12T10:26:22;99823.34;;;22.12;46.73
56912;BME280;42800;53.928;27.662;2023-05-12T10:28:49;99822.47;;;22.39;46.51
56912;BME280;42800;53.928;27.662;2023-05-12T10:31:16;99816.41;;;22.44;45.82
56912;BME280;42800;53.928;27.662;2023-05-12T10:33:54;99812.56;;;22.94;46.04
56912;BME280;42800;53.928;27.662;2023-05-12T10:36:20;99814.06;;;22.98;46.18
56912;BME280;42800;53.928;27.662;2023-05-12T10:38:47;99808.09;;;23.33;45.55
56912;BME280;42800;53.928;27.662;2023-05-12T10:41:14;99813.91;;;23.22;45.05
56912;BME280;42800;53.928;27.662;2023-05-12T10:43:42;99809.09;;;24.04;45.18
56912;BME280;42800;53.928;27.662;2023-05-12T10:46:15;99805.69;;;25.09;45.83
56912;BME280;42800;53.928;27.662;2023-05-12T10:48:50;99807.88;;;24.76;44.88
56912;BME280;42800;53.928;27.662;2023-05-12T10:51:18;99803.56;;;24.59;44.07
56912;BME280;42800;53.928;27.662;2023-05-12T10:53:49;99800.53;;;24.40;44.75
56912;BME280;42800;53.928;27.662;2023-05-12T10:56:20;99795.69;;;24.83;44.02
56912;BME280;42800;53.928;27.662;2023-05-12T10:59:09;99800.19;;;24.22;43.34
56912;BME280;42800;53.928;27.662;2023-05-12T11:01:36;99800.59;;;24.66;45.04
56912;BME280;42800;53.928;27.662;2023-05-12T11:04:10;99800.59;;;24.37;43.46
56912;BME280;42800;53.928;27.662;2023-05-12T11:06:37;99797.50;;;23.89;44.16
56912;BME280;42800;53.928;27.662;2023-05-12T11:09:03;99790.88;;;24.41;44.64
56912;BME280;42800;53.928;27.662;2023-05-12T11:11:29;99791.91;;;24.48;43.69
56912;BME280;42800;53.928;27.662;2023-05-12T11:13:56;99783.06;;;23.75;44.47
56912;BME280;42800;53.928;27.662;2023-05-12T11:16:23;99791.53;;;23.87;44.76
56912;BME280;42800;53.928;27.662;2023-05-12T11:18:59;99793.31;;;24.10;43.99
56912;BME280;42800;53.928;27.662;2023-05-12T11:21:26;99780.97;;;24.37;43.62
56912;BME280;42800;53.928;27.662;2023-05-12T11:23:53;99779.50;;;23.74;42.76
56912;BME280;42800;53.928;27.662;2023-05-12T11:26:19;99782.63;;;23.11;43.36
56912;BME280;42800;53.928;27.662;2023-05-12T11:28:45;99775.22;;;23.37;43.21
56912;BME280;42800;53.928;27.662;2023-05-12T11:31:16;99773.78;;;23.78;43.52
56912;BME280;42800;53.928;27.662;2023-05-12T11:33:42;99783.94;;;24.17;42.63
56912;BME280;42800;53.928;27.662;2023-05-12T11:36:08;99774.03;;;24.00;43.08
56912;BME280;42800;53.928;27.662;2023-05-12T11:38:35;99767.50;;;23.24;44.01
56912;BME280;42800;53.928;27.662;2023-05-12T11:41:02;99776.50;;;23.81;43.33
56912;BME280;42800;53.928;27.662;2023-05-12T11:43:28;99764.34;;;23.71;43.89
56912;BME280;42800;53.928;27.662;2023-05-12T11:45:54;99773.38;;;23.30;43.97
56912;BME280;42800;53.928;27.662;2023-05-12T11:48:20;99767.16;;;23.06;43.46
56912;BME280;42800;53.928;27.662;2023-05-12T11:50:48;99769.81;;;22.57;43.87
56912;BME280;42800;53.928;27.662;2023-05-12T11:53:16;99767.56;;;22.68;45.56
56912;BME280;42800;53.928;27.662;2023-05-12T11:55:47;99771.41;;;22.38;44.06
56912;BME280;42800;53.928;27.662;2023-05-12T11:58:18;99766.41;;;22.29;45.80
56912;BME280;42800;53.928;27.662;2023-05-12T12:00:45;99774.19;;;22.58;44.04
56912;BME280;42800;53.928;27.662;2023-05-12T12:03:12;99766.94;;;22.61;43.62
56912;BME280;42800;53.928;27.662;2023-05-12T12:05:40;99761.56;;;22.70;44.10
56912;BME280;42800;53.928;27.662;2023-05-12T12:08:08;99757.34;;;22.98;44.19
56912;BME280;42800;53.928;27.662;2023-05-12T12:10:34;99752.47;;;23.02;42.46
56912;BME280;42800;53.928;27.662;2023-05-12T12:13:01;99749.88;;;22.91;42.76
56912;BME280;42800;53.928;27.662;2023-05-12T12:15:28;99749.59;;;23.22;42.12
56912;BME280;42800;53.928;27.662;2023-05-12T12:17:55;99740.06;;;23.03;41.83
56912;BME280;42800;53.928;27.662;2023-05-12T12:20:21;99737.22;;;23.52;41.87
56912;BME280;42800;53.928;27.662;2023-05-12T12:22:49;99737.41;;;22.79;41.34
56912;BME280;42800;53.928;27.662;2023-05-12T12:25:15;99737.22;;;23.52;41.45
56912;BME280;42800;53.928;27.662;2023-05-12T12:27:41;99738.31;;;23.42;42.44
56912;BME280;42800;53.928;27.662;2023-05-12T12:30:08;99733.34;;;23.00;43.38
56912;BME280;42800;53.928;27.662;2023-05-12T12:32:35;99738.84;;;22.68;44.33
56912;BME280;42800;53.928;27.662;2023-05-12T12:35:02;99734.31;;;22.18;44.98
56912;BME280;42800;53.928;27.662;2023-05-12T12:37:30;99740.28;;;22.20;45.45
56912;BME280;42800;53.928;27.662;2023-05-12T12:39:56;99739.22;;;21.90;45.54
56912;BME280;42800;53.928;27.662;2023-05-12T12:42:22;99741.34;;;21.63;45.57
56912;BME280;42800;53.928;27.662;2023-05-12T12:44:48;99738.13;;;21.64;45.09
56912;BME280;42800;53.928;27.662;2023-05-12T12:47:16;99738.50;;;21.66;45.29